Time;durP1;ratioP1;P1;durP2;ratioP2;P2;SDS_P1;SDS_P2;PMS_P1;PMS_P2;Temp;Humidity;BMP_temperature;BMP_pressure;BME280_temperature;BME280_humidity;BME280_pressure;Samples;Min_cycle;Max_cycle;Signal;HPM_P1;HPM_P2
2022/03/29 05:10:21;;;;;;;;;;;;;;;8.16;49.18;97470.22;5101093;22;19913;-79
2022/03/29 05:24:36;;;;;;;;;;;;;;;7.51;50.20;97462.41;5001908;28;19925;-76
2022/03/29 05:27:05;;;;;;;;;;;;;;;7.17;51.66;97462.84;5009157;28;19932;-77
2022/03/29 05:29:43;;;;;;;;;;;;;;;7.26;51.46;97461.06;5241532;22;19926;-81
2022/03/29 05:33:15;;;;;;;;;;;;;;;8.01;49.89;97457.03;5003152;28;19973;-82
2022/03/29 06:16:47;;;;;;;;;;;;;;;8.51;49.01;97456.94;5793488;23;19931;-81
2022/03/29 06:20:07;;;;;;;;;;;;;;;8.38;49.11;97458.63;5038934;28;19932;-80
2022/03/29 06:22:37;;;;;;;;;;;;;;;8.36;49.03;97460.81;5057248;28;19929;-80
2022/03/29 06:25:07;;;;;;;;;;;;;;;8.56;49.22;97459.53;5044766;28;19929;-79
2022/03/29 06:27:35;;;;;;;;;;;;;;;8.01;49.49;97465.94;5044140;28;20040;-80
2022/03/29 06:30:03;;;;;;;;;;;;;;;7.81;50.54;97461.78;5041614;28;20004;-80
2022/03/29 06:32:33;;;;;;;;;;;;;;;8.01;50.31;97459.72;5042477;28;19949;-80
2022/03/29 06:35:01;;;;;;;;;;;;;;;8.35;49.31;97468.09;5045350;28;19932;-80
2022/03/29 06:37:34;;;;;;;;;;;;;;;8.64;48.60;97465.00;5035544;28;19916;-79
2022/03/29 06:40:06;;;;;;;;;;;;;;;8.46;49.02;97460.56;5056368;28;19929;-80
2022/03/29 06:42:34;;;;;;;;;;;;;;;8.50;48.91;97456.16;5043245;28;19925;-80
2022/03/29 06:45:05;;;;;;;;;;;;;;;8.44;49.32;97459.28;5051987;28;19947;-80
2022/03/29 06:47:35;;;;;;;;;;;;;;;8.55;48.72;97458.72;5053507;28;19932;-80
2022/03/29 06:50:04;;;;;;;;;;;;;;;8.73;48.33;97456.91;5053668;28;19921;-80
2022/03/29 06:52:34;;;;;;;;;;;;;;;8.85;48.26;97453.66;5055725;28;19925;-80
2022/03/29 06:55:14;;;;;;;;;;;;;;;9.30;47.83;97462.44;5051182;28;19933;-80
2022/03/29 06:57:43;;;;;;;;;;;;;;;8.92;47.81;97452.09;5053867;28;20410;-80
2022/03/29 07:00:12;;;;;;;;;;;;;;;9.36;47.33;97458.47;5054733;28;19925;-80
2022/03/29 07:02:41;;;;;;;;;;;;;;;9.18;47.10;97462.25;5059982;28;19948;-80
2022/03/29 07:05:09;;;;;;;;;;;;;;;9.14;47.53;97461.28;5042778;28;19968;-80
2022/03/29 07:07:39;;;;;;;;;;;;;;;9.15;47.42;97455.53;5049697;28;19932;-80
2022/03/29 07:12:57;;;;;;;;;;;;;;;9.43;46.88;97445.28;5046945;28;19932;-79
2022/03/29 07:15:26;;;;;;;;;;;;;;;9.39;47.19;97447.00;5050297;28;19925;-80
2022/03/29 07:17:56;;;;;;;;;;;;;;;9.44;47.17;97452.28;5050744;28;19979;-80
2022/03/29 07:20:24;;;;;;;;;;;;;;;9.60;47.15;97449.94;5064287;28;19909;-79
2022/03/29 07:22:55;;;;;;;;;;;;;;;9.80;46.26;97448.56;5053546;28;19957;-80
2022/03/29 07:25:25;;;;;;;;;;;;;;;10.50;45.61;97446.66;5050076;28;19944;-80
2022/03/29 07:27:53;;;;;;;;;;;;;;;10.95;44.44;97449.75;5049621;28;19948;-80
2022/03/29 07:30:24;;;;;;;;;;;;;;;10.96;44.01;97455.97;5050048;28;19925;-80
2022/03/29 07:32:53;;;;;;;;;;;;;;;10.49;44.89;97448.59;5051481;28;19979;-80
2022/03/29 07:35:24;;;;;;;;;;;;;;;10.63;44.65;97453.81;5037156;28;19940;-79
2022/03/29 07:37:52;;;;;;;;;;;;;;;10.61;44.45;97455.28;5055752;28;19925;-80
2022/03/29 07:40:46;;;;;;;;;;;;;;;10.71;43.92;97438.63;5047181;28;19947;-80
2022/03/29 07:43:21;;;;;;;;;;;;;;;11.32;43.40;97447.34;5037970;28;19926;-80
2022/03/29 07:45:51;;;;;;;;;;;;;;;10.89;43.00;97433.94;5042658;28;19925;-80
2022/03/29 07:48:45;;;;;;;;;;;;;;;11.27;42.25;97439.38;5054372;28;19940;-80
2022/03/29 07:51:35;;;;;;;;;;;;;;;11.58;41.88;97430.09;5035090;28;19926;-80
2022/03/29 07:54:09;;;;;;;;;;;;;;;11.85;40.89;97437.81;5056361;28;19992;-80
2022/03/29 07:56:37;;;;;;;;;;;;;;;11.83;40.56;97434.63;5047623;28;19973;-78
2022/03/29 07:59:05;;;;;;;;;;;;;;;12.11;40.36;97434.09;5015171;28;20028;-79
2022/03/29 08:01:36;;;;;;;;;;;;;;;12.10;39.77;97438.75;5039214;28;19948;-80
2022/03/29 08:04:09;;;;;;;;;;;;;;;11.67;40.36;97436.31;5041587;28;19971;-77
2022/03/29 08:06:39;;;;;;;;;;;;;;;11.69;39.83;97434.03;5034164;28;19916;-81
2022/03/29 08:28:34;;;;;;;;;;;;;;;12.07;40.25;97434.75;4967453;29;19926;-82
2022/03/29 08:43:50;;;;;;;;;;;;;;;11.77;41.41;97431.28;4990821;28;19932;-81
2022/03/29 09:11:57;;;;;;;;;;;;;;;12.83;40.87;97406.28;4864510;29;19928;-81
2022/03/29 09:14:28;;;;;;;;;;;;;;;12.98;41.25;97409.50;4863448;29;19929;-76
2022/03/29 09:16:57;;;;;;;;;;;;;;;12.93;41.24;97409.72;4821742;29;19935;-77
2022/03/29 09:19:25;;;;;;;;;;;;;;;13.17;41.24;97408.97;4827552;29;19963;-77
2022/03/29 09:21:55;;;;;;;;;;;;;;;12.85;41.43;97408.69;4840167;29;20407;-78
2022/03/29 09:24:25;;;;;;;;;;;;;;;13.14;40.83;97413.16;4814814;29;19912;-78
2022/03/29 09:26:54;;;;;;;;;;;;;;;13.16;40.97;97408.19;4851868;29;19934;-77
2022/03/29 09:29:24;;;;;;;;;;;;;;;13.32;40.57;97398.22;4898748;29;19935;-77
2022/03/29 09:32:03;;;;;;;;;;;;;;;13.73;40.09;97403.72;4915212;29;19926;-78
2022/03/29 09:34:31;;;;;;;;;;;;;;;13.26;40.69;97396.84;4988408;28;19932;-79
2022/03/29 09:37:01;;;;;;;;;;;;;;;12.99;41.51;97397.47;4966262;28;19998;-78
2022/03/29 09:39:35;;;;;;;;;;;;;;;12.59;42.08;97395.34;4982305;28;19931;-80
2022/03/29 09:43:10;;;;;;;;;;;;;;;12.56;42.60;97394.09;4955317;28;19927;-77
2022/03/29 09:45:40;;;;;;;;;;;;;;;12.95;42.39;97391.91;4963239;28;19990;-79
2022/03/29 09:48:25;;;;;;;;;;;;;;;12.87;42.08;97395.50;4962536;28;19962;-77
2022/03/29 09:50:58;;;;;;;;;;;;;;;13.20;41.50;97400.09;4960421;28;19930;-77
2022/03/29 09:53:41;;;;;;;;;;;;;;;13.21;41.63;97396.22;4936780;29;19926;-77
2022/03/29 09:56:11;;;;;;;;;;;;;;;13.17;41.62;97396.13;4938837;29;19933;-76
2022/03/29 09:59:05;;;;;;;;;;;;;;;13.40;41.61;97385.56;4953722;28;19942;-79
2022/03/29 10:01:46;;;;;;;;;;;;;;;13.97;40.49;97392.75;4940820;29;19966;-78
2022/03/29 10:04:15;;;;;;;;;;;;;;;13.58;41.02;97386.94;4944810;29;19974;-79
2022/03/29 10:06:45;;;;;;;;;;;;;;;13.37;41.77;97378.09;4961739;29;20609;-78
2022/03/29 10:38:08;;;;;;;;;;;;;;;14.10;42.15;97347.84;5002586;28;19949;-79
2022/03/29 10:40:39;;;;;;;;;;;;;;;14.00;42.35;97342.88;5032357;28;19949;-82
2022/03/29 10:43:27;;;;;;;;;;;;;;;14.49;41.49;97337.25;5029816;28;19929;-81
2022/03/29 10:49:00;;;;;;;;;;;;;;;14.87;40.36;97330.38;5019467;28;19917;-81
2022/03/29 10:51:28;;;;;;;;;;;;;;;14.52;41.07;97330.28;5016691;28;19925;-82
2022/03/29 10:54:07;;;;;;;;;;;;;;;14.53;40.79;97327.19;5000254;28;19926;-81
2022/03/29 10:56:51;;;;;;;;;;;;;;;14.54;40.91;97317.03;5017399;28;19926;-81
2022/03/29 11:52:57;;;;;;;;;;;;;;;15.92;36.69;97255.66;5026206;28;19935;-83
2022/03/29 12:02:57;;;;;;;;;;;;;;;16.40;35.82;97236.97;5701226;23;20214;-81
2022/03/29 12:14:22;;;;;;;;;;;;;;;16.50;36.11;97228.91;4976235;28;19981;-81
2022/03/29 12:17:28;;;;;;;;;;;;;;;16.53;36.61;97221.94;4976926;28;19951;-81
2022/03/29 12:19:57;;;;;;;;;;;;;;;16.65;36.30;97208.00;4954907;28;19927;-82
2022/03/29 12:22:27;;;;;;;;;;;;;;;16.59;35.86;97214.97;4984093;28;19919;-81
2022/03/29 12:24:58;;;;;;;;;;;;;;;16.70;37.04;97210.44;4989244;28;19918;-82
2022/03/29 12:27:26;;;;;;;;;;;;;;;16.43;37.00;97206.88;4992091;28;20234;-82
2022/03/29 12:30:20;;;;;;;;;;;;;;;16.09;37.43;97194.94;4964851;28;19930;-82
2022/03/29 12:32:48;;;;;;;;;;;;;;;16.63;37.22;97193.88;4993524;28;19990;-82
2022/03/29 12:35:23;;;;;;;;;;;;;;;16.31;37.32;97190.63;4991569;28;19985;-82
2022/03/29 12:38:36;;;;;;;;;;;;;;;16.33;37.92;97198.47;4997847;28;19910;-81
2022/03/29 12:41:46;;;;;;;;;;;;;;;16.03;37.73;97196.38;4967740;28;19926;-78
2022/03/29 12:44:16;;;;;;;;;;;;;;;16.45;37.20;97188.09;4991554;28;19929;-77
2022/03/29 12:46:52;;;;;;;;;;;;;;;16.45;36.78;97181.81;5032662;28;19926;-81
2022/03/29 14:14:16;;;;;;;;;;;;;;;16.28;36.97;97076.22;4713516;30;20090;-78
2022/03/29 14:16:44;;;;;;;;;;;;;;;16.66;37.42;97069.72;4733113;30;19937;-77
2022/03/29 14:19:12;;;;;;;;;;;;;;;16.44;37.13;97062.38;4771329;30;19938;-78
2022/03/29 14:21:40;;;;;;;;;;;;;;;16.57;36.99;97058.25;4756091;30;20348;-78
2022/03/29 14:24:08;;;;;;;;;;;;;;;16.54;37.38;97058.97;4806875;29;20452;-78
2022/03/29 14:26:37;;;;;;;;;;;;;;;16.49;37.00;97051.06;4864296;29;19935;-79
2022/03/29 16:10:49;;;;;;;;;;;;;;;15.57;35.07;96981.97;4964411;28;19930;-79
2022/03/29 16:14:25;;;;;;;;;;;;;;;15.58;35.76;96972.59;4966683;28;19941;-79
2022/03/29 16:56:13;;;;;;;;;;;;;;;15.72;37.76;96967.38;4926147;29;19951;-80
2022/03/29 16:59:08;;;;;;;;;;;;;;;15.65;36.79;96950.81;4946666;29;19911;-82
2022/03/29 17:01:40;;;;;;;;;;;;;;;15.22;37.12;96952.03;4938870;29;20353;-81
2022/03/29 17:04:20;;;;;;;;;;;;;;;15.56;37.20;96948.31;4921493;29;19927;-81
2022/03/29 17:07:05;;;;;;;;;;;;;;;14.98;38.11;96959.44;4932361;29;19934;-78
2022/03/29 17:09:37;;;;;;;;;;;;;;;14.68;38.00;96962.78;4974625;28;19950;-80
2022/03/29 17:12:22;;;;;;;;;;;;;;;14.46;37.91;96959.97;4970707;29;19935;-83
2022/03/29 17:15:02;;;;;;;;;;;;;;;14.41;37.21;96958.31;4961146;29;19934;-81
2022/03/29 17:17:40;;;;;;;;;;;;;;;14.34;37.31;96952.72;4974666;23;20774;-78
2022/03/29 17:23:26;;;;;;;;;;;;;;;14.61;36.66;96945.47;5005283;28;19934;-79
2022/03/29 17:25:55;;;;;;;;;;;;;;;14.42;36.91;96943.50;4977667;28;20012;-78
2022/03/29 17:28:27;;;;;;;;;;;;;;;14.36;37.30;96944.94;5001262;28;20032;-78
2022/03/29 17:30:58;;;;;;;;;;;;;;;14.44;37.14;96938.47;4979720;28;20304;-78
2022/03/29 17:33:26;;;;;;;;;;;;;;;14.71;37.26;96944.88;4982736;28;19926;-79
2022/03/29 17:35:55;;;;;;;;;;;;;;;14.21;37.56;96940.31;5002735;28;19926;-78
2022/03/29 17:38:23;;;;;;;;;;;;;;;14.18;37.97;96939.09;4990833;28;19934;-77
2022/03/29 17:40:56;;;;;;;;;;;;;;;14.56;38.00;96941.09;5000541;28;19925;-77
2022/03/29 17:43:26;;;;;;;;;;;;;;;14.24;38.30;96940.41;5020576;28;20029;-78
2022/03/29 17:46:22;;;;;;;;;;;;;;;14.26;38.56;96942.78;4985386;28;20016;-79
2022/03/29 17:48:50;;;;;;;;;;;;;;;14.09;38.91;96941.25;4995899;28;20011;-79
2022/03/29 17:51:20;;;;;;;;;;;;;;;14.17;38.86;96943.00;5012569;28;19925;-79
2022/03/29 17:53:50;;;;;;;;;;;;;;;14.38;39.35;96948.09;5009646;28;19926;-77
2022/03/29 17:56:19;;;;;;;;;;;;;;;14.63;38.50;96943.16;4999314;28;20244;-78
2022/03/29 17:58:52;;;;;;;;;;;;;;;14.35;38.69;96946.09;5022657;28;19925;-80
2022/03/29 18:01:23;;;;;;;;;;;;;;;14.07;39.25;96944.34;4995911;28;19925;-79
2022/03/29 18:03:57;;;;;;;;;;;;;;;14.11;38.93;96942.50;5001626;28;19951;-80
2022/03/29 18:06:30;;;;;;;;;;;;;;;14.23;38.98;96940.78;4985845;28;19989;-81
2022/03/29 18:09:05;;;;;;;;;;;;;;;14.26;39.03;96940.03;5006872;28;19929;-81
2022/03/29 18:11:54;;;;;;;;;;;;;;;14.12;38.95;96943.28;5002509;28;19926;-80
2022/03/29 18:15:00;;;;;;;;;;;;;;;;;;;;;
2022/03/29 18:17:43;;;;;;;;;;;;;;;13.91;39.60;96940.88;5026557;28;19936;-80
2022/03/29 18:20:23;;;;;;;;;;;;;;;14.23;38.34;96935.31;5013030;28;19980;-80
2022/03/29 18:23:09;;;;;;;;;;;;;;;14.19;39.39;96940.69;5027831;28;19984;-80
2022/03/29 18:25:42;;;;;;;;;;;;;;;14.24;39.04;96940.41;5003889;28;19926;-79
2022/03/29 18:28:19;;;;;;;;;;;;;;;13.99;39.53;96947.25;5010434;28;19950;-80
2022/03/29 18:33:51;;;;;;;;;;;;;;;13.95;39.26;96949.91;4999459;28;19971;-80
2022/03/29 18:39:34;;;;;;;;;;;;;;;14.28;39.25;96943.22;5001874;28;19925;-79
2022/03/29 18:42:05;;;;;;;;;;;;;;;13.95;39.52;96947.19;4987693;28;20021;-79
2022/03/29 18:44:33;;;;;;;;;;;;;;;14.10;39.70;96943.63;4994926;28;19980;-77
2022/03/29 18:47:02;;;;;;;;;;;;;;;14.10;39.64;96953.75;4992298;28;19926;-76
2022/03/29 18:49:33;;;;;;;;;;;;;;;13.85;40.08;96947.75;4992525;28;19937;-78
2022/03/29 18:52:02;;;;;;;;;;;;;;;13.85;40.22;96945.81;4979498;28;20792;-78
2022/03/29 18:54:30;;;;;;;;;;;;;;;13.60;40.53;96949.91;4991994;28;20392;-78
2022/03/29 18:56:59;;;;;;;;;;;;;;;13.83;40.65;96945.38;5006146;28;19930;-78
2022/03/29 18:59:33;;;;;;;;;;;;;;;14.10;40.63;96940.88;4978405;28;19932;-79
2022/03/29 19:02:02;;;;;;;;;;;;;;;13.93;40.06;96938.56;4995936;28;19930;-79
2022/03/29 19:04:33;;;;;;;;;;;;;;;13.63;40.29;96941.81;4985009;28;19925;-79
2022/03/29 19:07:07;;;;;;;;;;;;;;;13.85;40.59;96942.31;4980763;28;19933;-77
2022/03/29 19:09:35;;;;;;;;;;;;;;;13.47;40.92;96938.28;4993382;28;19926;-77
2022/03/29 19:12:04;;;;;;;;;;;;;;;13.40;41.13;96940.84;4977241;28;19933;-78
2022/03/29 19:14:32;;;;;;;;;;;;;;;13.38;40.88;96939.63;4978475;28;20453;-78
2022/03/29 19:31:32;;;;;;;;;;;;;;;13.22;41.94;96945.09;5013906;28;20043;-79
2022/03/29 19:34:05;;;;;;;;;;;;;;;13.16;42.45;96952.72;5022615;28;19933;-80
2022/03/29 19:39:41;;;;;;;;;;;;;;;13.59;40.79;96946.38;5022440;28;19933;-80
2022/03/29 19:42:11;;;;;;;;;;;;;;;13.29;41.28;96943.31;5023893;28;19909;-80
2022/03/29 19:44:45;;;;;;;;;;;;;;;13.54;41.16;96946.66;5036068;28;19926;-80
2022/03/29 19:47:16;;;;;;;;;;;;;;;13.68;40.89;96946.19;5035828;28;19928;-80
2022/03/29 19:49:49;;;;;;;;;;;;;;;13.43;40.86;96947.56;5024130;28;19925;-80
2022/03/29 19:52:17;;;;;;;;;;;;;;;13.00;41.72;96951.91;5021791;28;19936;-80
2022/03/29 19:54:45;;;;;;;;;;;;;;;12.85;41.76;96946.06;5018556;28;19926;-80
2022/03/29 19:57:19;;;;;;;;;;;;;;;12.87;41.95;96950.38;5020189;28;19952;-80
2022/03/29 19:59:47;;;;;;;;;;;;;;;13.01;41.73;96948.03;5025786;28;19926;-80
2022/03/29 20:02:18;;;;;;;;;;;;;;;13.46;41.47;96933.19;5013533;28;19932;-80
2022/03/29 20:04:46;;;;;;;;;;;;;;;13.38;40.73;96943.16;5030636;28;19925;-79
2022/03/29 20:07:16;;;;;;;;;;;;;;;13.41;40.77;96941.63;5023901;28;19944;-79
2022/03/29 20:09:45;;;;;;;;;;;;;;;13.43;40.59;96942.09;5031526;28;19925;-80
2022/03/29 20:12:16;;;;;;;;;;;;;;;13.38;40.68;96929.50;5017368;28;19980;-80
2022/03/29 20:14:45;;;;;;;;;;;;;;;13.43;40.36;96931.97;5018128;28;19925;-80
2022/03/29 20:17:14;;;;;;;;;;;;;;;13.58;40.19;96939.34;5018125;28;19956;-80
2022/03/29 20:20:12;;;;;;;;;;;;;;;13.09;40.92;96936.94;5025885;28;19925;-80
2022/03/29 20:22:41;;;;;;;;;;;;;;;13.06;40.79;96929.47;5000891;28;19948;-79
2022/03/29 20:25:21;;;;;;;;;;;;;;;13.25;40.70;96939.72;5030059;28;20025;-79
2022/03/29 20:27:50;;;;;;;;;;;;;;;13.17;40.59;96939.88;5024409;28;19926;-79
2022/03/29 20:30:25;;;;;;;;;;;;;;;13.26;40.63;96935.03;5005065;28;20299;-79
2022/03/29 20:32:56;;;;;;;;;;;;;;;13.27;40.27;96925.75;5004221;28;19984;-79
2022/03/29 20:35:27;;;;;;;;;;;;;;;13.27;40.64;96923.00;5004500;28;19997;-81
2022/03/29 20:37:55;;;;;;;;;;;;;;;13.40;40.06;96921.75;5011728;28;19926;-79
2022/03/29 20:40:28;;;;;;;;;;;;;;;13.41;40.31;96920.59;5003609;28;19933;-79
2022/03/29 20:42:56;;;;;;;;;;;;;;;13.44;40.47;96925.38;5013782;28;20323;-79
2022/03/29 20:45:27;;;;;;;;;;;;;;;13.51;40.61;96928.25;5011614;28;19992;-79
2022/03/29 20:47:55;;;;;;;;;;;;;;;13.53;40.81;96925.16;5011572;28;19929;-78
2022/03/29 20:50:24;;;;;;;;;;;;;;;13.55;40.87;96929.13;5015612;28;19929;-78
2022/03/29 20:52:53;;;;;;;;;;;;;;;13.47;41.37;96921.91;5017137;28;19931;-78
2022/03/29 20:55:22;;;;;;;;;;;;;;;13.58;41.54;96922.16;5018853;28;19946;-78
2022/03/29 20:57:51;;;;;;;;;;;;;;;13.37;42.62;96917.03;5021198;28;19925;-78
2022/03/29 21:00:19;;;;;;;;;;;;;;;13.26;42.60;96916.75;5008637;28;19925;-78
2022/03/29 21:02:47;;;;;;;;;;;;;;;13.12;43.18;96919.09;5031671;28;20327;-78
2022/03/29 21:05:17;;;;;;;;;;;;;;;13.23;43.35;96916.66;5018574;28;19925;-79
2022/03/29 21:07:45;;;;;;;;;;;;;;;13.29;42.97;96915.25;5027103;28;19926;-79
2022/03/29 21:10:14;;;;;;;;;;;;;;;13.43;43.09;96906.63;5012574;28;19929;-78
2022/03/29 21:12:42;;;;;;;;;;;;;;;13.46;43.03;96908.63;5033050;28;20322;-79
2022/03/29 21:15:10;;;;;;;;;;;;;;;13.38;43.20;96910.41;5018716;28;19925;-79
2022/03/29 21:17:39;;;;;;;;;;;;;;;13.42;42.51;96913.22;5002215;28;20398;-78
2022/03/29 21:20:07;;;;;;;;;;;;;;;13.38;42.58;96915.88;5021713;28;19969;-78
2022/03/29 21:22:35;;;;;;;;;;;;;;;13.57;41.88;96913.19;5022422;28;19929;-78
2022/03/29 21:25:23;;;;;;;;;;;;;;;13.58;42.26;96911.25;5012078;28;19934;-79
2022/03/29 21:27:52;;;;;;;;;;;;;;;13.62;41.52;96910.19;5014498;28;20272;-79
2022/03/29 21:30:20;;;;;;;;;;;;;;;13.44;42.00;96900.03;5020012;28;19925;-79
2022/03/29 21:32:48;;;;;;;;;;;;;;;13.36;42.17;96907.22;5018938;28;20380;-78
2022/03/29 21:35:16;;;;;;;;;;;;;;;13.17;43.01;96907.16;5019432;28;19929;-78
2022/03/29 21:37:44;;;;;;;;;;;;;;;13.09;43.15;96898.75;5023633;28;19934;-78
2022/03/29 21:40:13;;;;;;;;;;;;;;;13.03;42.94;96908.34;5024736;28;19929;-79
2022/03/29 21:42:42;;;;;;;;;;;;;;;13.17;43.17;96901.69;5013619;28;20458;-79
2022/03/29 21:45:10;;;;;;;;;;;;;;;13.09;43.80;96906.94;5022951;28;19932;-78
2022/03/29 21:47:42;;;;;;;;;;;;;;;12.88;45.13;96900.97;5023357;28;19929;-79
2022/03/29 21:50:11;;;;;;;;;;;;;;;12.89;45.67;96904.47;5021167;28;19933;-79
2022/03/29 21:52:59;;;;;;;;;;;;;;;13.08;45.79;96907.31;5029144;28;20028;-79
2022/03/29 21:55:46;;;;;;;;;;;;;;;12.79;48.68;96911.25;5022259;28;19925;-78
2022/03/29 21:58:34;;;;;;;;;;;;;;;12.65;49.49;96910.88;5021236;28;19932;-79
2022/03/29 22:01:21;;;;;;;;;;;;;;;12.68;49.62;96910.19;5021391;28;19933;-79
2022/03/29 22:04:08;;;;;;;;;;;;;;;13.21;48.03;96908.00;5015743;28;20469;-79
2022/03/29 22:06:55;;;;;;;;;;;;;;;13.33;47.77;96913.41;5021391;28;19929;-79
2022/03/29 22:09:23;;;;;;;;;;;;;;;13.15;48.85;96914.88;5030089;28;19931;-79
2022/03/29 22:11:51;;;;;;;;;;;;;;;13.43;48.71;96915.59;5031728;28;19964;-79
2022/03/29 22:14:24;;;;;;;;;;;;;;;13.48;48.53;96918.06;5036090;28;19933;-78
2022/03/29 22:17:10;;;;;;;;;;;;;;;13.30;48.82;96916.84;5041010;28;20016;-79
2022/03/29 22:19:39;;;;;;;;;;;;;;;13.11;51.04;96920.25;5005339;28;19948;-79
2022/03/29 22:22:11;;;;;;;;;;;;;;;13.34;49.96;96913.06;5030109;28;19925;-79
2022/03/29 22:24:39;;;;;;;;;;;;;;;13.42;49.52;96910.47;5008501;28;19925;-78
2022/03/29 22:27:08;;;;;;;;;;;;;;;13.24;50.18;96901.88;5016918;28;19925;-78
2022/03/29 22:29:37;;;;;;;;;;;;;;;13.02;51.60;96906.78;5032898;28;19925;-79
2022/03/29 22:32:06;;;;;;;;;;;;;;;13.16;51.50;96911.81;5028503;28;19929;-79
2022/03/29 22:34:34;;;;;;;;;;;;;;;12.97;52.56;96907.03;5029051;28;19968;-79
2022/03/29 22:37:03;;;;;;;;;;;;;;;13.04;51.44;96903.69;5030008;28;19932;-79
2022/03/29 22:39:32;;;;;;;;;;;;;;;13.16;50.63;96906.34;5027839;28;20276;-79
2022/03/29 22:41:59;;;;;;;;;;;;;;;13.28;50.18;96892.66;5021889;28;19929;-79
2022/03/29 22:44:29;;;;;;;;;;;;;;;13.31;50.43;96891.13;5007230;28;19925;-79
2022/03/29 22:46:58;;;;;;;;;;;;;;;13.22;49.98;96888.59;5017731;28;19926;-78
2022/03/29 22:49:27;;;;;;;;;;;;;;;12.99;51.01;96891.13;4996802;28;19929;-79
2022/03/29 22:51:55;;;;;;;;;;;;;;;13.16;50.92;96884.53;5005889;28;20017;-78
2022/03/29 22:54:28;;;;;;;;;;;;;;;13.13;50.48;96873.53;5024836;28;19925;-79
2022/03/29 22:59:42;;;;;;;;;;;;;;;12.86;51.10;96873.28;5013700;28;19933;-78
2022/03/29 23:02:11;;;;;;;;;;;;;;;12.81;51.62;96870.81;5025614;28;19988;-78
2022/03/29 23:04:39;;;;;;;;;;;;;;;12.61;51.60;96867.16;5008098;28;20287;-78
2022/03/29 23:07:08;;;;;;;;;;;;;;;12.54;52.77;96859.63;5019134;28;19936;-79
2022/03/29 23:09:36;;;;;;;;;;;;;;;12.63;52.72;96856.72;5027276;28;19992;-78
2022/03/29 23:12:04;;;;;;;;;;;;;;;12.63;52.51;96850.50;5025250;28;19929;-78
2022/03/29 23:14:32;;;;;;;;;;;;;;;12.57;52.85;96852.69;5016679;28;20014;-79
2022/03/29 23:17:00;;;;;;;;;;;;;;;12.74;52.47;96848.84;5012393;28;19925;-79
2022/03/29 23:19:31;;;;;;;;;;;;;;;12.80;52.83;96850.16;5006601;28;19929;-78
2022/03/29 23:21:59;;;;;;;;;;;;;;;12.67;53.16;96845.91;5024794;28;19925;-78
2022/03/29 23:24:27;;;;;;;;;;;;;;;12.64;53.27;96841.97;5037287;28;19925;-79
2022/03/29 23:26:57;;;;;;;;;;;;;;;12.51;54.13;96841.22;4996868;28;20506;-79
2022/03/29 23:29:37;;;;;;;;;;;;;;;12.12;54.67;96837.47;5024063;28;19925;-79
2022/03/29 23:32:08;;;;;;;;;;;;;;;12.35;54.22;96834.97;5011658;28;19976;-78
2022/03/29 23:34:41;;;;;;;;;;;;;;;12.53;53.38;96830.00;4995990;28;19929;-79
2022/03/29 23:37:09;;;;;;;;;;;;;;;12.42;53.52;96824.28;5007889;28;19925;-79
2022/03/29 23:39:37;;;;;;;;;;;;;;;12.35;53.65;96820.56;5026831;28;20316;-78
2022/03/29 23:42:05;;;;;;;;;;;;;;;12.12;54.49;96823.06;5014368;28;19941;-78
2022/03/29 23:44:33;;;;;;;;;;;;;;;12.18;54.32;96818.94;5023873;28;19992;-78
2022/03/29 23:47:02;;;;;;;;;;;;;;;12.21;54.38;96818.28;5003951;28;19933;-78
2022/03/29 23:49:31;;;;;;;;;;;;;;;11.87;55.64;96825.88;5004821;28;19925;-78
2022/03/29 23:52:00;;;;;;;;;;;;;;;11.75;56.46;96839.50;5005284;28;19926;-78
2022/03/29 23:54:29;;;;;;;;;;;;;;;11.71;57.14;96833.16;5020101;28;19925;-78
2022/03/29 23:56:57;;;;;;;;;;;;;;;11.66;57.48;96836.13;5014737;28;19926;-78
2022/03/29 23:59:25;;;;;;;;;;;;;;;11.59;57.35;96825.03;5017612;28;19930;-78
